sensor_id;sensor_type;location;lat;lon;timestamp;pressure;altitude;pressure_sealevel;temperature;humidity
46614;BME280;32338;50.430;6.806;2024-01-25T00:00:44;65997.56;;;5.31;100.00
46614;BME280;32338;50.430;6.806;2024-01-25T00:03:11;65993.28;;;5.30;100.00
46614;BME280;32338;50.430;6.806;2024-01-25T00:05:38;65995.88;;;5.30;100.00
46614;BME280;32338;50.430;6.806;2024-01-25T00:08:05;65996.63;;;5.33;100.00
46614;BME280;32338;50.430;6.806;2024-01-25T00:10:32;66000.72;;;5.32;100.00
46614;BME280;32338;50.430;6.806;2024-01-25T00:12:59;65999.03;;;5.30;100.00
46614;BME280;32338;50.430;6.806;2024-01-25T00:15:26;65993.28;;;5.30;100.00
46614;BME280;32338;50.430;6.806;2024-01-25T00:17:53;65994.97;;;5.31;100.00
46614;BME280;32338;50.430;6.806;2024-01-25T00:20:20;65989.34;;;5.26;100.00
46614;BME280;32338;50.430;6.806;2024-01-25T00:22:48;65987.69;;;5.25;100.00
46614;BME280;32338;50.430;6.806;2024-01-25T00:25:14;65981.50;;;5.19;100.00
46614;BME280;32338;50.430;6.806;2024-01-25T00:27:41;65996.22;;;5.28;100.00
46614;BME280;32338;50.430;6.806;2024-01-25T00:30:10;65995.31;;;5.29;100.00
46614;BME280;32338;50.430;6.806;2024-01-25T00:32:37;65994.41;;;5.31;100.00
46614;BME280;32338;50.430;6.806;2024-01-25T00:35:04;65990.47;;;5.27;100.00
46614;BME280;32338;50.430;6.806;2024-01-25T00:37:32;65986.56;;;5.24;100.00
46614;BME280;32338;50.430;6.806;2024-01-25T00:40:00;65985.06;;;5.25;100.00
46614;BME280;32338;50.430;6.806;2024-01-25T00:42:28;65980.38;;;5.18;100.00
46614;BME280;32338;50.430;6.806;2024-01-25T00:44:55;65982.41;;;5.17;100.00
46614;BME280;32338;50.430;6.806;2024-01-25T00:47:23;65983.53;;;5.18;100.00
46614;BME280;32338;50.430;6.806;2024-01-25T00:49:50;65983.19;;;5.20;100.00
46614;BME280;32338;50.430;6.806;2024-01-25T00:52:17;65976.84;;;5.19;100.00
46614;BME280;32338;50.430;6.806;2024-01-25T00:54:44;65983.91;;;5.16;100.00
46614;BME280;32338;50.430;6.806;2024-01-25T00:57:13;65976.44;;;5.14;100.00
46614;BME280;32338;50.430;6.806;2024-01-25T00:59:40;65972.09;;;5.06;100.00
46614;BME280;32338;50.430;6.806;2024-01-25T01:02:11;65960.97;;;5.02;100.00
46614;BME280;32338;50.430;6.806;2024-01-25T01:04:38;65960.19;;;4.99;100.00
46614;BME280;32338;50.430;6.806;2024-01-25T01:07:06;65963.00;;;5.02;100.00
46614;BME280;32338;50.430;6.806;2024-01-25T01:09:33;65974.91;;;5.08;100.00
46614;BME280;32338;50.430;6.806;2024-01-25T01:11:59;65980.75;;;5.16;100.00
46614;BME280;32338;50.430;6.806;2024-01-25T01:14:27;65972.31;;;5.08;100.00
46614;BME280;32338;50.430;6.806;2024-01-25T01:16:54;65969.72;;;5.08;100.00
46614;BME280;32338;50.430;6.806;2024-01-25T01:19:21;65975.13;;;5.11;100.00
46614;BME280;32338;50.430;6.806;2024-01-25T01:21:47;65971.41;;;5.10;100.00
46614;BME280;32338;50.430;6.806;2024-01-25T01:24:14;65966.56;;;5.08;100.00
46614;BME280;32338;50.430;6.806;2024-01-25T01:26:41;65987.88;;;5.27;100.00
46614;BME280;32338;50.430;6.806;2024-01-25T01:29:07;65991.75;;;5.24;100.00
46614;BME280;32338;50.430;6.806;2024-01-25T01:31:35;65982.22;;;5.15;100.00
46614;BME280;32338;50.430;6.806;2024-01-25T01:34:02;65977.44;;;5.20;100.00
46614;BME280;32338;50.430;6.806;2024-01-25T01:36:28;65973.44;;;5.09;100.00
46614;BME280;32338;50.430;6.806;2024-01-25T01:38:55;65966.31;;;4.98;100.00
46614;BME280;32338;50.430;6.806;2024-01-25T01:41:22;65953.47;;;4.93;100.00
46614;BME280;32338;50.430;6.806;2024-01-25T01:43:52;65956.97;;;4.92;100.00
46614;BME280;32338;50.430;6.806;2024-01-25T01:46:30;65951.03;;;4.89;100.00
46614;BME280;32338;50.430;6.806;2024-01-25T01:49:00;65950.44;;;4.88;100.00
46614;BME280;32338;50.430;6.806;2024-01-25T01:51:28;65942.25;;;4.83;100.00
46614;BME280;32338;50.430;6.806;2024-01-25T01:53:55;65938.91;;;4.80;100.00
46614;BME280;32338;50.430;6.806;2024-01-25T01:56:24;65943.53;;;4.79;100.00
46614;BME280;32338;50.430;6.806;2024-01-25T01:58:51;65940.38;;;4.79;100.00
46614;BME280;32338;50.430;6.806;2024-01-25T02:01:18;65938.69;;;4.77;100.00
46614;BME280;32338;50.430;6.806;2024-01-25T02:03:45;65934.97;;;4.76;100.00
46614;BME280;32338;50.430;6.806;2024-01-25T02:06:13;65937.56;;;4.76;100.00
46614;BME280;32338;50.430;6.806;2024-01-25T02:08:40;65936.78;;;4.73;100.00
46614;BME280;32338;50.430;6.806;2024-01-25T02:11:06;65933.09;;;4.72;100.00
46614;BME280;32338;50.430;6.806;2024-01-25T02:13:34;65933.09;;;4.72;100.00
46614;BME280;32338;50.430;6.806;2024-01-25T02:16:01;65932.16;;;4.74;100.00
46614;BME280;32338;50.430;6.806;2024-01-25T02:18:27;65931.03;;;4.73;100.00
46614;BME280;32338;50.430;6.806;2024-01-25T02:20:54;65929.38;;;4.71;100.00
46614;BME280;32338;50.430;6.806;2024-01-25T02:23:22;65936.78;;;4.73;100.00
46614;BME280;32338;50.430;6.806;2024-01-25T02:25:49;65932.53;;;4.71;100.00
46614;BME280;32338;50.430;6.806;2024-01-25T02:28:16;65923.41;;;4.68;100.00
46614;BME280;32338;50.430;6.806;2024-01-25T02:30:42;65926.16;;;4.63;100.00
46614;BME280;32338;50.430;6.806;2024-01-25T02:33:09;65912.75;;;4.58;100.00
46614;BME280;32338;50.430;6.806;2024-01-25T02:35:37;65906.94;;;4.50;100.00
46614;BME280;32338;50.430;6.806;2024-01-25T02:38:03;65900.59;;;4.42;100.00
46614;BME280;32338;50.430;6.806;2024-01-25T02:40:31;65891.25;;;4.36;100.00
46614;BME280;32338;50.430;6.806;2024-01-25T02:42:58;65882.44;;;4.23;100.00
46614;BME280;32338;50.430;6.806;2024-01-25T02:45:25;65873.81;;;4.13;100.00
46614;BME280;32338;50.430;6.806;2024-01-25T02:47:51;65865.50;;;4.12;100.00
46614;BME280;32338;50.430;6.806;2024-01-25T02:50:18;65853.72;;;4.01;100.00
46614;BME280;32338;50.430;6.806;2024-01-25T02:52:45;65850.16;;;3.96;100.00
46614;BME280;32338;50.430;6.806;2024-01-25T02:55:11;65849.03;;;3.95;100.00
46614;BME280;32338;50.430;6.806;2024-01-25T02:57:39;65850.50;;;3.94;100.00
46614;BME280;32338;50.430;6.806;2024-01-25T03:00:07;65840.28;;;3.89;100.00
46614;BME280;32338;50.430;6.806;2024-01-25T03:02:34;65837.47;;;3.86;100.00
46614;BME280;32338;50.430;6.806;2024-01-25T03:05:00;65833.34;;;3.80;100.00
46614;BME280;32338;50.430;6.806;2024-01-25T03:07:27;65813.25;;;3.69;100.00
46614;BME280;32338;50.430;6.806;2024-01-25T03:09:54;65815.22;;;3.61;100.00
46614;BME280;32338;50.430;6.806;2024-01-25T03:12:20;65803.31;;;3.55;100.00
46614;BME280;32338;50.430;6.806;2024-01-25T03:14:49;65799.19;;;3.49;100.00
46614;BME280;32338;50.430;6.806;2024-01-25T03:17:15;65796.94;;;3.47;100.00
46614;BME280;32338;50.430;6.806;2024-01-25T03:19:42;65784.84;;;3.38;100.00
46614;BME280;32338;50.430;6.806;2024-01-25T03:22:09;65786.69;;;3.35;100.00
46614;BME280;32338;50.430;6.806;2024-01-25T03:24:37;65792.81;;;3.40;100.00
46614;BME280;32338;50.430;6.806;2024-01-25T03:27:04;65790.22;;;3.40;100.00
46614;BME280;32338;50.430;6.806;2024-01-25T03:29:30;65794.94;;;3.47;100.00
46614;BME280;32338;50.430;6.806;2024-01-25T03:31:58;65803.31;;;3.55;100.00
46614;BME280;32338;50.430;6.806;2024-01-25T03:34:25;65808.72;;;3.57;100.00
46614;BME280;32338;50.430;6.806;2024-01-25T03:36:51;65811.50;;;3.60;100.00
46614;BME280;32338;50.430;6.806;2024-01-25T03:39:19;65810.59;;;3.62;100.00
46614;BME280;32338;50.430;6.806;2024-01-25T03:41:46;65811.72;;;3.63;100.00
46614;BME280;32338;50.430;6.806;2024-01-25T03:44:12;65816.91;;;3.63;100.00
46614;BME280;32338;50.430;6.806;2024-01-25T03:46:39;65810.75;;;3.57;100.00
46614;BME280;32338;50.430;6.806;2024-01-25T03:49:07;65802.00;;;3.51;100.00
46614;BME280;32338;50.430;6.806;2024-01-25T03:51:33;65799.41;;;3.51;100.00
46614;BME280;32338;50.430;6.806;2024-01-25T03:54:00;65798.84;;;3.51;100.00
46614;BME280;32338;50.430;6.806;2024-01-25T03:56:27;65807.59;;;3.56;100.00
46614;BME280;32338;50.430;6.806;2024-01-25T03:58:53;65805.91;;;3.55;100.00
46614;BME280;32338;50.430;6.806;2024-01-25T04:01:20;65800.53;;;3.52;100.00
46614;BME280;32338;50.430;6.806;2024-01-25T04:03:46;65799.75;;;3.49;100.00
46614;BME280;32338;50.430;6.806;2024-01-25T04:06:14;65793.09;;;3.50;100.00
46614;BME280;32338;50.430;6.806;2024-01-25T04:08:41;65801.44;;;3.51;100.00
46614;BME280;32338;50.430;6.806;2024-01-25T04:11:07;65800.66;;;3.48;100.00
46614;BME280;32338;50.430;6.806;2024-01-25T04:13:34;65800.31;;;3.50;100.00
46614;BME280;32338;50.430;6.806;2024-01-25T04:16:01;65811.44;;;3.53;100.00
46614;BME280;32338;50.430;6.806;2024-01-25T04:18:27;65802.34;;;3.49;100.00
46614;BME280;32338;50.430;6.806;2024-01-25T04:20:54;65799.97;;;3.52;100.00
46614;BME280;32338;50.430;6.806;2024-01-25T04:23:22;65797.72;;;3.50;100.00
46614;BME280;32338;50.430;6.806;2024-01-25T04:25:48;65794.72;;;3.45;100.00
46614;BME280;32338;50.430;6.806;2024-01-25T04:28:15;65796.41;;;3.46;100.00
46614;BME280;32338;50.430;6.806;2024-01-25T04:30:42;65789.13;;;3.39;100.00
46614;BME280;32338;50.430;6.806;2024-01-25T04:33:08;65776.81;;;3.28;100.00
46614;BME280;32338;50.430;6.806;2024-01-25T04:35:35;65764.28;;;3.14;100.00
46614;BME280;32338;50.430;6.806;2024-01-25T04:38:01;65744.19;;;3.03;100.00
46614;BME280;32338;50.430;6.806;2024-01-25T04:40:29;65739.66;;;2.91;100.00
46614;BME280;32338;50.430;6.806;2024-01-25T04:42:56;65726.66;;;2.84;100.00
46614;BME280;32338;50.430;6.806;2024-01-25T04:45:24;65734.63;;;2.87;100.00
46614;BME280;32338;50.430;6.806;2024-01-25T04:47:50;65715.44;;;2.74;100.00
46614;BME280;32338;50.430;6.806;2024-01-25T04:50:17;65703.31;;;2.58;100.00
46614;BME280;32338;50.430;6.806;2024-01-25T04:52:43;65713.22;;;2.72;100.00
46614;BME280;32338;50.430;6.806;2024-01-25T04:55:10;65707.00;;;2.59;100.00
46614;BME280;32338;50.430;6.806;2024-01-25T04:57:38;65706.84;;;2.64;100.00
46614;BME280;32338;50.430;6.806;2024-01-25T05:00:06;65693.09;;;2.53;100.00
46614;BME280;32338;50.430;6.806;2024-01-25T05:02:33;65694.22;;;2.54;100.00
46614;BME280;32338;50.430;6.806;2024-01-25T05:04:59;65700.91;;;2.61;100.00
46614;BME280;32338;50.430;6.806;2024-01-25T05:07:26;65713.16;;;2.65;100.00
46614;BME280;32338;50.430;6.806;2024-01-25T05:09:52;65698.88;;;2.61;100.00
46614;BME280;32338;50.430;6.806;2024-01-25T05:12:19;65696.00;;;2.51;100.00
46614;BME280;32338;50.430;6.806;2024-01-25T05:14:47;65693.78;;;2.49;100.00
46614;BME280;32338;50.430;6.806;2024-01-25T05:17:13;65694.56;;;2.52;100.00
46614;BME280;32338;50.430;6.806;2024-01-25T05:19:40;65697.91;;;2.55;100.00
46614;BME280;32338;50.430;6.806;2024-01-25T05:22:06;65704.25;;;2.64;100.00
46614;BME280;32338;50.430;6.806;2024-01-25T05:24:33;65716.16;;;2.70;100.00
46614;BME280;32338;50.430;6.806;2024-01-25T05:27:00;65730.13;;;2.83;100.00
46614;BME280;32338;50.430;6.806;2024-01-25T05:29:27;65733.50;;;2.86;100.00
46614;BME280;32338;50.430;6.806;2024-01-25T05:31:55;65737.63;;;2.92;100.00
46614;BME280;32338;50.430;6.806;2024-01-25T05:34:22;65725.38;;;2.88;100.00
46614;BME280;32338;50.430;6.806;2024-01-25T05:36:49;65737.44;;;2.89;100.00
46614;BME280;32338;50.430;6.806;2024-01-25T05:39:15;65738.56;;;2.90;100.00
46614;BME280;32338;50.430;6.806;2024-01-25T05:41:42;65740.22;;;2.92;100.00
46614;BME280;32338;50.430;6.806;2024-01-25T05:44:10;65743.22;;;2.97;100.00
46614;BME280;32338;50.430;6.806;2024-01-25T05:46:37;65747.69;;;3.01;100.00
46614;BME280;32338;50.430;6.806;2024-01-25T05:49:04;65746.03;;;3.00;100.00
46614;BME280;32338;50.430;6.806;2024-01-25T05:51:31;65740.97;;;2.95;100.00
46614;BME280;32338;50.430;6.806;2024-01-25T05:53:58;65738.19;;;2.92;100.00
46614;BME280;32338;50.430;6.806;2024-01-25T05:56:24;65735.38;;;2.90;100.00
46614;BME280;32338;50.430;6.806;2024-01-25T05:58:51;65743.22;;;2.97;100.00
46614;BME280;32338;50.430;6.806;2024-01-25T06:01:18;65747.50;;;2.99;100.00
46614;BME280;32338;50.430;6.806;2024-01-25T06:03:44;65735.81;;;2.95;100.00
46614;BME280;32338;50.430;6.806;2024-01-25T06:06:12;65738.56;;;2.90;100.00
46614;BME280;32338;50.430;6.806;2024-01-25T06:08:39;65724.63;;;2.85;100.00
46614;BME280;32338;50.430;6.806;2024-01-25T06:11:06;65727.00;;;2.82;100.00
46614;BME280;32338;50.430;6.806;2024-01-25T06:13:35;65721.19;;;2.74;100.00
46614;BME280;32338;50.430;6.806;2024-01-25T06:16:01;65727.34;;;2.80;100.00
46614;BME280;32338;50.430;6.806;2024-01-25T06:18:28;65726.44;;;2.82;100.00
46614;BME280;32338;50.430;6.806;2024-01-25T06:20:54;65732.38;;;2.85;100.00
46614;BME280;32338;50.430;6.806;2024-01-25T06:23:22;65727.00;;;2.82;100.00
46614;BME280;32338;50.430;6.806;2024-01-25T06:25:49;65729.03;;;2.82;100.00
46614;BME280;32338;50.430;6.806;2024-01-25T06:28:15;65727.91;;;2.81;100.00
46614;BME280;32338;50.430;6.806;2024-01-25T06:30:43;65725.31;;;2.81;100.00
46614;BME280;32338;50.430;6.806;2024-01-25T06:33:09;65720.63;;;2.74;100.00
46614;BME280;32338;50.430;6.806;2024-01-25T06:35:36;65714.69;;;2.71;100.00
46614;BME280;32338;50.430;6.806;2024-01-25T06:38:03;65699.78;;;2.59;100.00
46614;BME280;32338;50.430;6.806;2024-01-25T06:40:31;65696.22;;;2.54;100.00
46614;BME280;32338;50.430;6.806;2024-01-25T06:42:57;65689.16;;;2.50;100.00
46614;BME280;32338;50.430;6.806;2024-01-25T06:45:24;65683.72;;;2.40;100.00
46614;BME280;32338;50.430;6.806;2024-01-25T06:47:51;65680.72;;;2.35;100.00
46614;BME280;32338;50.430;6.806;2024-01-25T06:50:17;65668.81;;;2.29;100.00
46614;BME280;32338;50.430;6.806;2024-01-25T06:52:44;65655.41;;;2.16;100.00
46614;BME280;32338;50.430;6.806;2024-01-25T06:55:10;65650.72;;;2.09;100.00
46614;BME280;32338;50.430;6.806;2024-01-25T06:57:39;65647.16;;;2.04;100.00
46614;BME280;32338;50.430;6.806;2024-01-25T07:00:07;65631.91;;;1.94;100.00
46614;BME280;32338;50.430;6.806;2024-01-25T07:02:36;65644.00;;;2.03;100.00
46614;BME280;32338;50.430;6.806;2024-01-25T07:05:03;65632.34;;;2.00;100.00
46614;BME280;32338;50.430;6.806;2024-01-25T07:07:29;65643.44;;;2.03;100.00
46614;BME280;32338;50.430;6.806;2024-01-25T07:09:57;65648.34;;;2.12;100.00
46614;BME280;32338;50.430;6.806;2024-01-25T07:12:24;65651.47;;;2.13;100.00
46614;BME280;32338;50.430;6.806;2024-01-25T07:14:52;65647.94;;;2.07;100.00
46614;BME280;32338;50.430;6.806;2024-01-25T07:17:19;65632.47;;;1.95;100.00
46614;BME280;32338;50.430;6.806;2024-01-25T07:19:45;65622.41;;;1.86;100.00
46614;BME280;32338;50.430;6.806;2024-01-25T07:22:12;65618.50;;;1.82;100.00
46614;BME280;32338;50.430;6.806;2024-01-25T07:24:40;65610.19;;;1.82;100.00
46614;BME280;32338;50.430;6.806;2024-01-25T07:27:07;65615.84;;;1.75;100.00
46614;BME280;32338;50.430;6.806;2024-01-25T07:29:35;65602.28;;;1.67;100.00
46614;BME280;32338;50.430;6.806;2024-01-25T07:32:03;65592.09;;;1.62;100.00
46614;BME280;32338;50.430;6.806;2024-01-25T07:34:30;65595.38;;;1.58;100.00
46614;BME280;32338;50.430;6.806;2024-01-25T07:36:57;65598.03;;;1.66;100.00
46614;BME280;32338;50.430;6.806;2024-01-25T07:39:23;65593.69;;;1.57;100.00
46614;BME280;32338;50.430;6.806;2024-01-25T07:41:50;65609.00;;;1.73;100.00
46614;BME280;32338;50.430;6.806;2024-01-25T07:44:16;65619.06;;;1.83;100.00
46614;BME280;32338;50.430;6.806;2024-01-25T07:46:44;65615.72;;;1.80;100.00
46614;BME280;32338;50.430;6.806;2024-01-25T07:49:12;65615.50;;;1.77;100.00
46614;BME280;32338;50.430;6.806;2024-01-25T07:51:39;65622.75;;;1.84;100.00
46614;BME280;32338;50.430;6.806;2024-01-25T07:54:06;65625.75;;;1.89;100.00
46614;BME280;32338;50.430;6.806;2024-01-25T07:56:32;65628.56;;;1.91;100.00
46614;BME280;32338;50.430;6.806;2024-01-25T07:58:59;65629.47;;;1.90;100.00
46614;BME280;32338;50.430;6.806;2024-01-25T08:01:26;65626.13;;;1.87;100.00
46614;BME280;32338;50.430;6.806;2024-01-25T08:03:53;65614.25;;;1.81;100.00
46614;BME280;32338;50.430;6.806;2024-01-25T08:06:21;65612.56;;;1.79;100.00
46614;BME280;32338;50.430;6.806;2024-01-25T08:08:47;65613.81;;;1.75;100.00
46614;BME280;32338;50.430;6.806;2024-01-25T08:11:15;65619.97;;;1.81;100.00
46614;BME280;32338;50.430;6.806;2024-01-25T08:13:43;65631.50;;;1.89;100.00
46614;BME280;32338;50.430;6.806;2024-01-25T08:16:10;65635.25;;;1.98;100.00
46614;BME280;32338;50.430;6.806;2024-01-25T08:18:39;65641.78;;;2.01;100.00
46614;BME280;32338;50.430;6.806;2024-01-25T08:21:05;65639.38;;;2.04;100.00
46614;BME280;32338;50.430;6.806;2024-01-25T08:23:33;65640.09;;;2.00;100.00
46614;BME280;32338;50.430;6.806;2024-01-25T08:26:00;65637.84;;;1.98;100.00
46614;BME280;32338;50.430;6.806;2024-01-25T08:28:27;65636.38;;;1.99;100.00
46614;BME280;32338;50.430;6.806;2024-01-25T08:30:53;65637.16;;;2.02;100.00
46614;BME280;32338;50.430;6.806;2024-01-25T08:33:20;65657.22;;;2.13;100.00
46614;BME280;32338;50.430;6.806;2024-01-25T08:35:46;65664.16;;;2.22;100.00
46614;BME280;32338;50.430;6.806;2024-01-25T08:38:13;65661.78;;;2.24;100.00
46614;BME280;32338;50.430;6.806;2024-01-25T08:40:41;65665.81;;;2.23;100.00
46614;BME280;32338;50.430;6.806;2024-01-25T08:43:07;65668.47;;;2.31;100.00
46614;BME280;32338;50.430;6.806;2024-01-25T08:45:34;65671.81;;;2.34;100.00
46614;BME280;32338;50.430;6.806;2024-01-25T08:48:02;65670.16;;;2.32;100.00
46614;BME280;32338;50.430;6.806;2024-01-25T08:50:29;65681.47;;;2.38;100.00
46614;BME280;32338;50.430;6.806;2024-01-25T08:52:55;65687.50;;;2.48;100.00
46614;BME280;32338;50.430;6.806;2024-01-25T08:55:22;65702.38;;;2.59;100.00
46614;BME280;32338;50.430;6.806;2024-01-25T08:57:50;65723.63;;;2.79;100.00
46614;BME280;32338;50.430;6.806;2024-01-25T09:00:17;65740.78;;;2.92;100.00
46614;BME280;32338;50.430;6.806;2024-01-25T09:02:44;65746.78;;;3.03;100.00
46614;BME280;32338;50.430;6.806;2024-01-25T09:05:11;65763.00;;;3.18;100.00
46614;BME280;32338;50.430;6.806;2024-01-25T09:07:37;65773.25;;;3.22;100.00
46614;BME280;32338;50.430;6.806;2024-01-25T09:10:05;65763.94;;;3.16;100.00
46614;BME280;32338;50.430;6.806;2024-01-25T09:12:32;65765.41;;;3.15;100.00
46614;BME280;32338;50.430;6.806;2024-01-25T09:15:00;65782.19;;;3.31;100.00
46614;BME280;32338;50.430;6.806;2024-01-25T09:17:26;65798.00;;;3.40;100.00
46614;BME280;32338;50.430;6.806;2024-01-25T09:19:53;65805.91;;;3.55;100.00
46614;BME280;32338;50.430;6.806;2024-01-25T09:22:20;65809.50;;;3.61;100.00
46614;BME280;32338;50.430;6.806;2024-01-25T09:24:47;65828.31;;;3.76;100.00
46614;BME280;32338;50.430;6.806;2024-01-25T09:27:14;65839.72;;;3.88;100.00
46614;BME280;32338;50.430;6.806;2024-01-25T09:29:41;65852.75;;;3.96;100.00
46614;BME280;32338;50.430;6.806;2024-01-25T09:32:09;65867.31;;;4.09;100.00
46614;BME280;32338;50.430;6.806;2024-01-25T09:34:37;65880.41;;;4.24;100.00
46614;BME280;32338;50.430;6.806;2024-01-25T09:37:04;65874.25;;;4.18;100.00
46614;BME280;32338;50.430;6.806;2024-01-25T09:39:31;65881.53;;;4.25;100.00
46614;BME280;32338;50.430;6.806;2024-01-25T09:41:58;65893.84;;;4.36;100.00
46614;BME280;32338;50.430;6.806;2024-01-25T09:44:24;65903.38;;;4.45;100.00
46614;BME280;32338;50.430;6.806;2024-01-25T09:46:51;65903.19;;;4.42;100.00
46614;BME280;32338;50.430;6.806;2024-01-25T09:49:19;65906.31;;;4.43;100.00
46614;BME280;32338;50.430;6.806;2024-01-25T09:51:47;65914.25;;;4.57;100.00
46614;BME280;32338;50.430;6.806;2024-01-25T09:54:16;65909.19;;;4.52;100.00
46614;BME280;32338;50.430;6.806;2024-01-25T09:56:42;65920.41;;;4.63;100.00
46614;BME280;32338;50.430;6.806;2024-01-25T09:59:09;65913.66;;;4.57;100.00
46614;BME280;32338;50.430;6.806;2024-01-25T10:01:37;65925.78;;;4.65;100.00
46614;BME280;32338;50.430;6.806;2024-01-25T10:04:06;65933.44;;;4.70;100.00
46614;BME280;32338;50.430;6.806;2024-01-25T10:06:34;65956.63;;;4.94;100.00
46614;BME280;32338;50.430;6.806;2024-01-25T10:09:01;65941.69;;;4.82;100.00
46614;BME280;32338;50.430;6.806;2024-01-25T10:11:28;65941.28;;;4.77;100.00
46614;BME280;32338;50.430;6.806;2024-01-25T10:14:01;65943.72;;;4.82;100.00
46614;BME280;32338;50.430;6.806;2024-01-25T10:16:29;65953.47;;;4.93;100.00
46614;BME280;32338;50.430;6.806;2024-01-25T10:18:56;65967.50;;;5.06;100.00
46614;BME280;32338;50.430;6.806;2024-01-25T10:21:23;65983.75;;;5.21;100.00
46614;BME280;32338;50.430;6.806;2024-01-25T10:23:51;66007.25;;;5.35;100.00
46614;BME280;32338;50.430;6.806;2024-01-25T10:26:20;66008.56;;;5.39;100.00
46614;BME280;32338;50.430;6.806;2024-01-25T10:28:52;66009.34;;;5.42;100.00
46614;BME280;32338;50.430;6.806;2024-01-25T10:31:19;65996.44;;;5.30;100.00
46614;BME280;32338;50.430;6.806;2024-01-25T10:33:46;66008.56;;;5.39;100.00
46614;BME280;32338;50.430;6.806;2024-01-25T10:36:13;66038.16;;;5.71;100.00
46614;BME280;32338;50.430;6.806;2024-01-25T10:38:42;66052.53;;;5.82;100.00
46614;BME280;32338;50.430;6.806;2024-01-25T10:41:13;66063.19;;;5.92;100.00
46614;BME280;32338;50.430;6.806;2024-01-25T10:43:40;66093.50;;;6.20;100.00
46614;BME280;32338;50.430;6.806;2024-01-25T10:46:07;66057.78;;;5.89;100.00
46614;BME280;32338;50.430;6.806;2024-01-25T10:48:34;66069.72;;;5.95;100.00
46614;BME280;32338;50.430;6.806;2024-01-25T10:51:01;66082.66;;;6.07;100.00
46614;BME280;32338;50.430;6.806;2024-01-25T10:53:29;66054.63;;;5.89;100.00
46614;BME280;32338;50.430;6.806;2024-01-25T10:55:57;66086.00;;;6.10;100.00
46614;BME280;32338;50.430;6.806;2024-01-25T10:58:30;66098.00;;;6.24;100.00
46614;BME280;32338;50.430;6.806;2024-01-25T11:00:56;66124.75;;;6.46;100.00
46614;BME280;32338;50.430;6.806;2024-01-25T11:03:25;66133.00;;;6.58;100.00
46614;BME280;32338;50.430;6.806;2024-01-25T11:05:54;66128.31;;;6.52;100.00
46614;BME280;32338;50.430;6.806;2024-01-25T11:08:21;66142.72;;;6.62;100.00
46614;BME280;32338;50.430;6.806;2024-01-25T11:10:51;66142.91;;;6.65;100.00
46614;BME280;32338;50.430;6.806;2024-01-25T11:13:26;66129.78;;;6.51;100.00
46614;BME280;32338;50.430;6.806;2024-01-25T11:15:53;66134.28;;;6.55;100.00
46614;BME280;32338;50.430;6.806;2024-01-25T11:18:19;66153.78;;;6.77;100.00
46614;BME280;32338;50.430;6.806;2024-01-25T11:20:47;66184.47;;;7.03;100.00
46614;BME280;32338;50.430;6.806;2024-01-25T11:23:16;66157.31;;;6.76;100.00
46614;BME280;32338;50.430;6.806;2024-01-25T11:25:45;66174.00;;;6.96;100.00
46614;BME280;32338;50.430;6.806;2024-01-25T11:28:13;66218.53;;;7.32;100.00
46614;BME280;32338;50.430;6.806;2024-01-25T11:30:43;66212.75;;;7.32;100.00
46614;BME280;32338;50.430;6.806;2024-01-25T11:33:10;66210.31;;;7.27;100.00
46614;BME280;32338;50.430;6.806;2024-01-25T11:35:37;66195.16;;;7.13;100.00
46614;BME280;32338;50.430;6.806;2024-01-25T11:38:03;66177.38;;;6.99;100.00
46614;BME280;32338;50.430;6.806;2024-01-25T11:40:30;66164.63;;;6.82;100.00
46614;BME280;32338;50.430;6.806;2024-01-25T11:42:57;66161.09;;;6.84;100.00
46614;BME280;32338;50.430;6.806;2024-01-25T11:45:23;66190.66;;;7.09;100.00
46614;BME280;32338;50.430;6.806;2024-01-25T11:47:51;66211.78;;;7.26;100.00
46614;BME280;32338;50.430;6.806;2024-01-25T11:50:18;66190.72;;;7.16;100.00
46614;BME280;32338;50.430;6.806;2024-01-25T11:52:46;66218.91;;;7.30;100.00
46614;BME280;32338;50.430;6.806;2024-01-25T11:55:13;66217.81;;;7.36;100.00
46614;BME280;32338;50.430;6.806;2024-01-25T11:57:40;66200.75;;;7.18;100.00
46614;BME280;32338;50.430;6.806;2024-01-25T12:00:08;66186.72;;;7.05;100.00
46614;BME280;32338;50.430;6.806;2024-01-25T12:02:36;66210.88;;;7.27;100.00
46614;BME280;32338;50.430;6.806;2024-01-25T12:05:05;66234.88;;;7.54;100.00
46614;BME280;32338;50.430;6.806;2024-01-25T12:07:33;66257.16;;;7.72;100.00
46614;BME280;32338;50.430;6.806;2024-01-25T12:10:03;66259.75;;;7.72;100.00
46614;BME280;32338;50.430;6.806;2024-01-25T12:12:30;66259.75;;;7.72;100.00
46614;BME280;32338;50.430;6.806;2024-01-25T12:17:33;66249.66;;;7.63;100.00
46614;BME280;32338;50.430;6.806;2024-01-25T12:20:02;66249.84;;;7.66;100.00
46614;BME280;32338;50.430;6.806;2024-01-25T12:22:30;66253.22;;;7.69;100.00
46614;BME280;32338;50.430;6.806;2024-01-25T12:24:57;66258.28;;;7.73;100.00
46614;BME280;32338;50.430;6.806;2024-01-25T12:27:25;66258.44;;;7.69;100.00
46614;BME280;32338;50.430;6.806;2024-01-25T12:29:53;66244.97;;;7.56;100.00
46614;BME280;32338;50.430;6.806;2024-01-25T12:32:19;66230.53;;;7.45;100.00
46614;BME280;32338;50.430;6.806;2024-01-25T12:34:53;66228.66;;;7.41;100.00
46614;BME280;32338;50.430;6.806;2024-01-25T12:37:20;66220.78;;;7.34;100.00
46614;BME280;32338;50.430;6.806;2024-01-25T12:39:55;66222.47;;;7.36;100.00
46614;BME280;32338;50.430;6.806;2024-01-25T12:42:22;66223.59;;;7.37;100.00
46614;BME280;32338;50.430;6.806;2024-01-25T12:44:52;66220.44;;;7.36;100.00
46614;BME280;32338;50.430;6.806;2024-01-25T12:47:18;66222.31;;;7.40;100.00
46614;BME280;32338;50.430;6.806;2024-01-25T12:49:45;66232.41;;;7.50;100.00
46614;BME280;32338;50.430;6.806;2024-01-25T12:52:13;66234.13;;;7.51;100.00
46614;BME280;32338;50.430;6.806;2024-01-25T12:54:40;66258.06;;;7.71;100.00
46614;BME280;32338;50.430;6.806;2024-01-25T12:57:08;66268.56;;;7.78;100.00
46614;BME280;32338;50.430;6.806;2024-01-25T12:59:36;66268.41;;;7.83;100.00
46614;BME280;32338;50.430;6.806;2024-01-25T13:02:03;66268.75;;;7.81;100.00